sensor_id;sensor_type;location;lat;lon;timestamp;temperature;humidity
37998;DHT22;24079;51.824;4.682;2022-07-04T00:00:07;17.30;99.90
37998;DHT22;24079;51.824;4.682;2022-07-04T00:02:33;17.30;99.90
37998;DHT22;24079;51.824;4.682;2022-07-04T00:04:58;17.30;99.90
37998;DHT22;24079;51.824;4.682;2022-07-04T00:07:24;17.20;99.90
37998;DHT22;24079;51.824;4.682;2022-07-04T00:09:50;17.20;99.90
37998;DHT22;24079;51.824;4.682;2022-07-04T00:12:16;17.20;99.90
37998;DHT22;24079;51.824;4.682;2022-07-04T00:14:41;17.20;99.90
37998;DHT22;24079;51.824;4.682;2022-07-04T00:17:07;17.30;99.90
37998;DHT22;24079;51.824;4.682;2022-07-04T00:19:33;17.30;99.90
37998;DHT22;24079;51.824;4.682;2022-07-04T00:21:59;17.20;99.90
37998;DHT22;24079;51.824;4.682;2022-07-04T00:24:25;17.30;99.90
37998;DHT22;24079;51.824;4.682;2022-07-04T00:26:50;17.30;99.90
37998;DHT22;24079;51.824;4.682;2022-07-04T00:29:16;17.30;99.90
37998;DHT22;24079;51.824;4.682;2022-07-04T00:31:42;17.30;99.90
37998;DHT22;24079;51.824;4.682;2022-07-04T00:34:08;17.20;99.90
37998;DHT22;24079;51.824;4.682;2022-07-04T00:36:33;17.20;99.90
37998;DHT22;24079;51.824;4.682;2022-07-04T00:38:59;17.20;99.90
37998;DHT22;24079;51.824;4.682;2022-07-04T00:41:24;17.20;99.90
37998;DHT22;24079;51.824;4.682;2022-07-04T00:44:07;17.10;99.90
37998;DHT22;24079;51.824;4.682;2022-07-04T00:46:34;17.10;99.90
37998;DHT22;24079;51.824;4.682;2022-07-04T00:49:00;17.10;99.90
37998;DHT22;24079;51.824;4.682;2022-07-04T00:51:26;17.00;99.90
37998;DHT22;24079;51.824;4.682;2022-07-04T00:53:55;17.10;99.90
37998;DHT22;24079;51.824;4.682;2022-07-04T00:56:22;17.10;99.90
37998;DHT22;24079;51.824;4.682;2022-07-04T00:58:48;17.00;99.90
37998;DHT22;24079;51.824;4.682;2022-07-04T01:01:14;17.00;99.90
37998;DHT22;24079;51.824;4.682;2022-07-04T01:03:40;17.00;99.90
37998;DHT22;24079;51.824;4.682;2022-07-04T01:06:06;17.00;99.90
37998;DHT22;24079;51.824;4.682;2022-07-04T01:08:36;17.00;99.90
37998;DHT22;24079;51.824;4.682;2022-07-04T01:11:02;17.00;99.90
37998;DHT22;24079;51.824;4.682;2022-07-04T01:13:28;17.00;99.90
37998;DHT22;24079;51.824;4.682;2022-07-04T01:15:54;17.00;99.90
37998;DHT22;24079;51.824;4.682;2022-07-04T01:18:19;17.00;99.90
37998;DHT22;24079;51.824;4.682;2022-07-04T01:20:45;17.00;99.90
37998;DHT22;24079;51.824;4.682;2022-07-04T01:23:10;17.00;99.90
37998;DHT22;24079;51.824;4.682;2022-07-04T01:25:36;17.00;99.90
37998;DHT22;24079;51.824;4.682;2022-07-04T01:28:03;17.00;99.90
37998;DHT22;24079;51.824;4.682;2022-07-04T01:30:29;17.00;99.90
37998;DHT22;24079;51.824;4.682;2022-07-04T01:32:56;17.00;99.90
37998;DHT22;24079;51.824;4.682;2022-07-04T01:35:22;16.90;99.90
37998;DHT22;24079;51.824;4.682;2022-07-04T01:37:49;16.90;99.90
37998;DHT22;24079;51.824;4.682;2022-07-04T01:40:15;16.80;99.90
37998;DHT22;24079;51.824;4.682;2022-07-04T01:42:42;16.80;99.90
37998;DHT22;24079;51.824;4.682;2022-07-04T01:45:09;16.80;99.90
37998;DHT22;24079;51.824;4.682;2022-07-04T01:47:36;16.70;99.90
37998;DHT22;24079;51.824;4.682;2022-07-04T01:50:04;16.70;99.90
37998;DHT22;24079;51.824;4.682;2022-07-04T01:52:30;16.70;99.90
37998;DHT22;24079;51.824;4.682;2022-07-04T01:54:55;16.70;99.90
37998;DHT22;24079;51.824;4.682;2022-07-04T01:57:21;16.70;99.90
37998;DHT22;24079;51.824;4.682;2022-07-04T01:59:46;16.60;99.90
37998;DHT22;24079;51.824;4.682;2022-07-04T02:02:30;16.60;99.90
37998;DHT22;24079;51.824;4.682;2022-07-04T02:04:56;16.60;99.90
37998;DHT22;24079;51.824;4.682;2022-07-04T02:07:21;16.50;99.90
37998;DHT22;24079;51.824;4.682;2022-07-04T02:09:47;16.50;99.90
37998;DHT22;24079;51.824;4.682;2022-07-04T02:12:13;16.60;99.90
37998;DHT22;24079;51.824;4.682;2022-07-04T02:14:57;16.50;99.90
37998;DHT22;24079;51.824;4.682;2022-07-04T02:17:23;16.60;99.90
37998;DHT22;24079;51.824;4.682;2022-07-04T02:19:48;16.50;99.90
37998;DHT22;24079;51.824;4.682;2022-07-04T02:22:15;16.50;99.90
37998;DHT22;24079;51.824;4.682;2022-07-04T02:24:41;16.50;99.90
37998;DHT22;24079;51.824;4.682;2022-07-04T02:27:07;16.60;99.90
37998;DHT22;24079;51.824;4.682;2022-07-04T02:29:34;16.60;99.90
37998;DHT22;24079;51.824;4.682;2022-07-04T02:31:59;16.50;99.90
37998;DHT22;24079;51.824;4.682;2022-07-04T02:34:25;16.60;99.90
37998;DHT22;24079;51.824;4.682;2022-07-04T02:36:51;16.50;99.90
37998;DHT22;24079;51.824;4.682;2022-07-04T02:39:16;16.50;99.90
37998;DHT22;24079;51.824;4.682;2022-07-04T02:41:42;16.50;99.90
37998;DHT22;24079;51.824;4.682;2022-07-04T02:44:08;16.50;99.90
37998;DHT22;24079;51.824;4.682;2022-07-04T02:46:34;16.60;99.90
37998;DHT22;24079;51.824;4.682;2022-07-04T02:49:00;16.50;99.90
37998;DHT22;24079;51.824;4.682;2022-07-04T02:51:26;16.60;99.90
37998;DHT22;24079;51.824;4.682;2022-07-04T02:53:52;16.50;99.90
37998;DHT22;24079;51.824;4.682;2022-07-04T02:56:17;16.50;99.90
37998;DHT22;24079;51.824;4.682;2022-07-04T02:58:43;16.50;99.90
37998;DHT22;24079;51.824;4.682;2022-07-04T03:01:09;16.50;99.90
37998;DHT22;24079;51.824;4.682;2022-07-04T03:03:35;16.50;99.90
37998;DHT22;24079;51.824;4.682;2022-07-04T03:06:00;16.50;99.90
37998;DHT22;24079;51.824;4.682;2022-07-04T03:08:26;16.50;99.90
37998;DHT22;24079;51.824;4.682;2022-07-04T03:10:52;16.50;99.90
37998;DHT22;24079;51.824;4.682;2022-07-04T03:13:18;16.50;99.90
37998;DHT22;24079;51.824;4.682;2022-07-04T03:15:45;16.50;99.90
37998;DHT22;24079;51.824;4.682;2022-07-04T03:18:11;16.60;99.90
37998;DHT22;24079;51.824;4.682;2022-07-04T03:20:36;16.50;99.90
37998;DHT22;24079;51.824;4.682;2022-07-04T03:23:02;16.50;99.90
37998;DHT22;24079;51.824;4.682;2022-07-04T03:25:28;16.50;99.90
37998;DHT22;24079;51.824;4.682;2022-07-04T03:27:53;16.50;99.90
37998;DHT22;24079;51.824;4.682;2022-07-04T03:30:19;16.50;99.90
37998;DHT22;24079;51.824;4.682;2022-07-04T03:32:45;16.40;99.90
37998;DHT22;24079;51.824;4.682;2022-07-04T03:35:11;16.30;99.90
37998;DHT22;24079;51.824;4.682;2022-07-04T03:37:36;16.30;99.90
37998;DHT22;24079;51.824;4.682;2022-07-04T03:40:03;16.30;99.90
37998;DHT22;24079;51.824;4.682;2022-07-04T03:42:29;16.40;99.90
37998;DHT22;24079;51.824;4.682;2022-07-04T03:44:54;16.30;99.90
37998;DHT22;24079;51.824;4.682;2022-07-04T03:47:20;16.30;99.90
37998;DHT22;24079;51.824;4.682;2022-07-04T03:49:45;16.30;99.90
37998;DHT22;24079;51.824;4.682;2022-07-04T03:52:11;16.30;99.90
37998;DHT22;24079;51.824;4.682;2022-07-04T03:54:37;16.30;99.90
37998;DHT22;24079;51.824;4.682;2022-07-04T03:57:02;16.30;99.90
37998;DHT22;24079;51.824;4.682;2022-07-04T03:59:28;16.30;99.90
37998;DHT22;24079;51.824;4.682;2022-07-04T04:08:37;16.20;99.90
37998;DHT22;24079;51.824;4.682;2022-07-04T04:11:03;16.20;99.90
37998;DHT22;24079;51.824;4.682;2022-07-04T04:13:29;16.20;99.90
37998;DHT22;24079;51.824;4.682;2022-07-04T04:15:54;16.10;99.90
37998;DHT22;24079;51.824;4.682;2022-07-04T04:18:20;16.10;99.90
37998;DHT22;24079;51.824;4.682;2022-07-04T04:20:45;16.10;99.90
37998;DHT22;24079;51.824;4.682;2022-07-04T04:23:11;16.10;99.90
37998;DHT22;24079;51.824;4.682;2022-07-04T04:25:36;16.10;99.90
37998;DHT22;24079;51.824;4.682;2022-07-04T04:28:02;16.10;99.90
37998;DHT22;24079;51.824;4.682;2022-07-04T04:30:28;16.10;99.90
37998;DHT22;24079;51.824;4.682;2022-07-04T04:32:53;16.20;99.90
37998;DHT22;24079;51.824;4.682;2022-07-04T04:35:19;16.20;99.90
37998;DHT22;24079;51.824;4.682;2022-07-04T04:37:44;16.20;99.90
37998;DHT22;24079;51.824;4.682;2022-07-04T04:40:11;16.20;99.90
37998;DHT22;24079;51.824;4.682;2022-07-04T04:42:36;16.20;99.90
37998;DHT22;24079;51.824;4.682;2022-07-04T04:45:04;16.40;99.90
37998;DHT22;24079;51.824;4.682;2022-07-04T04:47:30;16.40;99.90
37998;DHT22;24079;51.824;4.682;2022-07-04T04:49:55;16.40;99.90
37998;DHT22;24079;51.824;4.682;2022-07-04T04:52:21;16.50;99.90
37998;DHT22;24079;51.824;4.682;2022-07-04T04:54:46;16.50;99.90
37998;DHT22;24079;51.824;4.682;2022-07-04T04:57:12;16.60;99.90
37998;DHT22;24079;51.824;4.682;2022-07-04T04:59:38;16.60;99.90
37998;DHT22;24079;51.824;4.682;2022-07-04T05:02:03;16.60;99.90
37998;DHT22;24079;51.824;4.682;2022-07-04T05:04:29;16.60;99.90
37998;DHT22;24079;51.824;4.682;2022-07-04T05:06:55;16.80;99.90
37998;DHT22;24079;51.824;4.682;2022-07-04T05:09:22;17.00;99.90
37998;DHT22;24079;51.824;4.682;2022-07-04T05:11:48;17.10;99.90
37998;DHT22;24079;51.824;4.682;2022-07-04T05:14:14;17.20;99.90
37998;DHT22;24079;51.824;4.682;2022-07-04T05:16:40;17.30;99.90
37998;DHT22;24079;51.824;4.682;2022-07-04T05:19:05;17.20;99.90
37998;DHT22;24079;51.824;4.682;2022-07-04T05:21:31;17.10;99.90
37998;DHT22;24079;51.824;4.682;2022-07-04T05:23:57;17.00;99.90
37998;DHT22;24079;51.824;4.682;2022-07-04T05:26:23;17.00;99.90
37998;DHT22;24079;51.824;4.682;2022-07-04T05:28:48;17.00;99.90
37998;DHT22;24079;51.824;4.682;2022-07-04T05:31:14;17.00;99.90
37998;DHT22;24079;51.824;4.682;2022-07-04T05:33:40;17.10;99.90
37998;DHT22;24079;51.824;4.682;2022-07-04T05:36:06;17.30;99.90
37998;DHT22;24079;51.824;4.682;2022-07-04T05:38:31;17.40;99.90
37998;DHT22;24079;51.824;4.682;2022-07-04T05:40:57;17.40;99.90
37998;DHT22;24079;51.824;4.682;2022-07-04T05:43:22;17.40;99.90
37998;DHT22;24079;51.824;4.682;2022-07-04T05:45:51;17.50;99.90
37998;DHT22;24079;51.824;4.682;2022-07-04T05:48:17;17.60;99.90
37998;DHT22;24079;51.824;4.682;2022-07-04T05:50:43;17.50;99.90
37998;DHT22;24079;51.824;4.682;2022-07-04T05:53:08;17.40;99.90
37998;DHT22;24079;51.824;4.682;2022-07-04T05:55:34;17.40;99.90
37998;DHT22;24079;51.824;4.682;2022-07-04T05:58:00;17.40;99.90
37998;DHT22;24079;51.824;4.682;2022-07-04T06:00:26;17.40;99.90
37998;DHT22;24079;51.824;4.682;2022-07-04T06:02:52;17.50;99.90
37998;DHT22;24079;51.824;4.682;2022-07-04T06:05:18;17.60;99.90
37998;DHT22;24079;51.824;4.682;2022-07-04T06:07:43;17.50;99.90
37998;DHT22;24079;51.824;4.682;2022-07-04T06:10:09;17.50;99.90
37998;DHT22;24079;51.824;4.682;2022-07-04T06:12:35;17.50;99.90
37998;DHT22;24079;51.824;4.682;2022-07-04T06:15:01;17.60;99.90
37998;DHT22;24079;51.824;4.682;2022-07-04T06:17:26;17.70;99.90
37998;DHT22;24079;51.824;4.682;2022-07-04T06:19:53;17.80;99.90
37998;DHT22;24079;51.824;4.682;2022-07-04T06:22:18;18.10;99.90
37998;DHT22;24079;51.824;4.682;2022-07-04T06:24:44;18.30;99.90
37998;DHT22;24079;51.824;4.682;2022-07-04T06:27:10;18.30;99.90
37998;DHT22;24079;51.824;4.682;2022-07-04T06:29:35;18.30;99.90
37998;DHT22;24079;51.824;4.682;2022-07-04T06:32:01;18.60;99.90
37998;DHT22;24079;51.824;4.682;2022-07-04T06:34:27;19.10;99.90
37998;DHT22;24079;51.824;4.682;2022-07-04T06:37:11;19.30;99.90
37998;DHT22;24079;51.824;4.682;2022-07-04T06:39:37;19.40;99.90
37998;DHT22;24079;51.824;4.682;2022-07-04T06:42:02;19.60;99.90
37998;DHT22;24079;51.824;4.682;2022-07-04T06:44:28;19.80;99.90
37998;DHT22;24079;51.824;4.682;2022-07-04T06:46:54;20.00;99.90
37998;DHT22;24079;51.824;4.682;2022-07-04T06:49:19;20.90;99.90
37998;DHT22;24079;51.824;4.682;2022-07-04T06:51:45;21.60;99.90
37998;DHT22;24079;51.824;4.682;2022-07-04T06:54:11;21.50;99.90
37998;DHT22;24079;51.824;4.682;2022-07-04T06:56:36;21.10;99.90
37998;DHT22;24079;51.824;4.682;2022-07-04T06:59:02;21.40;99.90
37998;DHT22;24079;51.824;4.682;2022-07-04T07:01:30;20.90;99.90
37998;DHT22;24079;51.824;4.682;2022-07-04T07:03:55;20.30;99.90
37998;DHT22;24079;51.824;4.682;2022-07-04T07:06:21;20.00;99.90
37998;DHT22;24079;51.824;4.682;2022-07-04T07:08:49;19.80;99.90
37998;DHT22;24079;51.824;4.682;2022-07-04T07:11:15;19.70;99.90
37998;DHT22;24079;51.824;4.682;2022-07-04T07:13:47;19.50;99.90
37998;DHT22;24079;51.824;4.682;2022-07-04T07:16:13;19.40;99.90
37998;DHT22;24079;51.824;4.682;2022-07-04T07:18:39;19.60;99.90
37998;DHT22;24079;51.824;4.682;2022-07-04T07:21:05;19.60;99.90
37998;DHT22;24079;51.824;4.682;2022-07-04T07:23:31;19.50;99.90
37998;DHT22;24079;51.824;4.682;2022-07-04T07:25:56;19.50;99.90
37998;DHT22;24079;51.824;4.682;2022-07-04T07:28:22;19.60;99.90
37998;DHT22;24079;51.824;4.682;2022-07-04T07:30:48;19.60;99.90
37998;DHT22;24079;51.824;4.682;2022-07-04T07:33:14;19.40;99.90
37998;DHT22;24079;51.824;4.682;2022-07-04T07:35:39;19.40;99.90
37998;DHT22;24079;51.824;4.682;2022-07-04T07:38:05;19.50;99.90
37998;DHT22;24079;51.824;4.682;2022-07-04T07:40:33;19.50;99.90
37998;DHT22;24079;51.824;4.682;2022-07-04T07:42:58;19.70;99.90
37998;DHT22;24079;51.824;4.682;2022-07-04T07:45:24;20.80;99.90
37998;DHT22;24079;51.824;4.682;2022-07-04T07:47:49;20.80;99.90
37998;DHT22;24079;51.824;4.682;2022-07-04T07:50:15;20.80;99.90
37998;DHT22;24079;51.824;4.682;2022-07-04T07:52:41;20.90;99.90
37998;DHT22;24079;51.824;4.682;2022-07-04T07:55:07;20.80;99.90
37998;DHT22;24079;51.824;4.682;2022-07-04T07:57:33;21.00;99.90
37998;DHT22;24079;51.824;4.682;2022-07-04T07:59:59;21.70;99.90
37998;DHT22;24079;51.824;4.682;2022-07-04T08:02:25;22.70;99.90
37998;DHT22;24079;51.824;4.682;2022-07-04T08:05:10;23.30;99.90
37998;DHT22;24079;51.824;4.682;2022-07-04T08:07:37;23.80;99.90
37998;DHT22;24079;51.824;4.682;2022-07-04T08:10:03;24.90;99.90
37998;DHT22;24079;51.824;4.682;2022-07-04T08:12:29;25.80;99.90
37998;DHT22;24079;51.824;4.682;2022-07-04T08:14:55;25.80;99.90
37998;DHT22;24079;51.824;4.682;2022-07-04T08:17:20;25.50;99.90
37998;DHT22;24079;51.824;4.682;2022-07-04T08:19:46;25.50;99.90
37998;DHT22;24079;51.824;4.682;2022-07-04T08:22:13;25.40;99.90
37998;DHT22;24079;51.824;4.682;2022-07-04T08:24:39;24.70;99.90
37998;DHT22;24079;51.824;4.682;2022-07-04T08:27:05;24.40;99.90
37998;DHT22;24079;51.824;4.682;2022-07-04T08:29:30;23.40;99.90
37998;DHT22;24079;51.824;4.682;2022-07-04T08:31:57;22.90;99.90
37998;DHT22;24079;51.824;4.682;2022-07-04T08:34:23;22.70;99.90
37998;DHT22;24079;51.824;4.682;2022-07-04T08:36:49;22.50;99.90
37998;DHT22;24079;51.824;4.682;2022-07-04T08:39:14;22.40;99.90
37998;DHT22;24079;51.824;4.682;2022-07-04T08:41:41;22.70;99.90
37998;DHT22;24079;51.824;4.682;2022-07-04T08:44:08;23.20;99.90
37998;DHT22;24079;51.824;4.682;2022-07-04T08:46:38;23.40;99.90
37998;DHT22;24079;51.824;4.682;2022-07-04T08:49:10;22.60;99.90
37998;DHT22;24079;51.824;4.682;2022-07-04T08:54:02;24.80;99.90
37998;DHT22;24079;51.824;4.682;2022-07-04T08:56:49;24.80;99.90
37998;DHT22;24079;51.824;4.682;2022-07-04T08:59:34;24.80;99.90
37998;DHT22;24079;51.824;4.682;2022-07-04T09:02:00;24.20;99.90
37998;DHT22;24079;51.824;4.682;2022-07-04T09:04:27;23.40;99.90
37998;DHT22;24079;51.824;4.682;2022-07-04T09:06:53;23.10;99.90
37998;DHT22;24079;51.824;4.682;2022-07-04T10:46:46;24.10;99.90
37998;DHT22;24079;51.824;4.682;2022-07-04T10:49:31;24.20;99.90
